Terminal Aerodrome Forecast
Issued by NWS Glasgow, MT

Home | Current Version | Previous Version | Text Only | Print | Product List | Glossary On
Versions: 1 2 3 4 5 6 7 8 9 10 11 12 13 14 15
000
FTUS45 KGGW 071731
TAFGGW
TAF
KGGW 071731Z 0718/0818 29026G32KT P6SM SCT050 BKN080
     FM080000 31012KT P6SM SCT030
     FM080600 30008KT P6SM BKN035
     FM081300 30005KT P6SM BKN025=

USA.gov is the U.S. government's official web portal to all federal, state and local government web resources and services.